»·PEaware :: ASA332 KSFO-KLAS

ASA332 :: KSFO-KLAS

FLIGHT INFORMATION

Flight Status: Arrived
Operator:
Alaska Airlines
More flights by this operator :: More flights under this callsign
Pilot: Kevin M. (7)
Aircraft: BOEING 737-800
(B738)
More flights by this aircraft type
Origin: KSFO San Francisco Intl
United States
Destination: KLAS McCarran Intl
United States
More flights between these airports :: More routes between these airports
Route: SSTIK4 NTELL Q162 ESSAA BTY SUNST4
File this flight plan on PilotEdge
Remarks:
Altitude:
(Current/Filed)
37,000ft
Speed:
(Current/Filed)
468kts
Departed: 24-Mar-20 11:31 AM
Arrived: 24-Mar-20 12:30 PM
Distance/Time
Traveled:
359nm/0:59
Distance/Time
To Go:
Arrived

Flight Plot

Page will automatically refresh every two minutes.

Flight plan parsing failed; only flown route is shown


Map Options




Map Legend


Flown Route
Filed Route
Departure Airport
Arrival Airport
Navaid (VOR, NDB)
Fix

Horizontal Profiles

Position Reports

Time Latitude Longitude Heading Altitude Ground
Speed
24-Mar-20 11:09 37.617866 -122.380620 258 37ft 0kts
24-Mar-20 11:10 37.617866 -122.380620 258 37ft 0kts
24-Mar-20 11:11 37.617866 -122.380620 258 37ft 0kts
24-Mar-20 11:12 37.617866 -122.380620 258 37ft 0kts
24-Mar-20 11:13 37.617866 -122.380620 258 37ft 0kts
24-Mar-20 11:14 37.617866 -122.380620 258 36ft 0kts
24-Mar-20 11:15 37.617866 -122.380620 258 37ft 0kts
24-Mar-20 11:16 37.617866 -122.380620 258 37ft 0kts
24-Mar-20 11:17 37.617866 -122.380620 258 37ft 0kts
24-Mar-20 11:18 37.617866 -122.380620 258 37ft 0kts
24-Mar-20 11:19 37.617901 -122.380405 258 36ft 2kts
24-Mar-20 11:20 37.618017 -122.379666 287 36ft 2kts
24-Mar-20 11:21 37.617836 -122.379489 345 35ft 0kts
24-Mar-20 11:22 37.617836 -122.379489 345 35ft 0kts
24-Mar-20 11:23 37.617836 -122.379489 345 35ft 0kts
24-Mar-20 11:24 37.617836 -122.379489 345 35ft 0kts
24-Mar-20 11:25 37.617836 -122.379489 345 35ft 0kts
24-Mar-20 11:26 37.617836 -122.379489 345 35ft 0kts
24-Mar-20 11:27 37.620134 -122.378643 47 34ft 16kts
24-Mar-20 11:28 37.624826 -122.373656 27 18ft 25kts
24-Mar-20 11:29 37.625625 -122.371160 207 16ft 29kts
24-Mar-20 11:30 37.590095 -122.389204 171 1840ft 181kts
24-Mar-20 11:31 37.568291 -122.324436 94 4206ft 261kts
24-Mar-20 11:32 37.561685 -122.229316 113 7424ft 282kts
24-Mar-20 11:33 37.528829 -122.136570 116 10412ft 306kts
24-Mar-20 11:34 37.493985 -122.024913 114 11727ft 380kts
24-Mar-20 11:35 37.452101 -121.891796 115 13480ft 423kts
24-Mar-20 11:36 37.411150 -121.749257 112 15924ft 446kts
24-Mar-20 11:37 37.370908 -121.597184 113 18202ft 466kts
24-Mar-20 11:38 37.328847 -121.439900 113 20300ft 486kts
24-Mar-20 11:39 37.284750 -121.275902 115 22224ft 504kts
24-Mar-20 11:40 37.238908 -121.106504 116 24192ft 514kts
24-Mar-20 11:42 37.192466 -120.936134 118 26060ft 522kts
24-Mar-20 11:43 37.144331 -120.760658 119 27508ft 534kts
24-Mar-20 11:44 37.095342 -120.583303 118 28846ft 546kts
24-Mar-20 11:45 37.044982 -120.402203 118 30189ft 557kts
24-Mar-20 11:46 36.993476 -120.217950 119 31509ft 563kts
24-Mar-20 11:47 36.941101 -120.032605 122 32817ft 564kts
24-Mar-20 11:48 36.931491 -119.832559 91 33912ft 605kts
24-Mar-20 11:49 36.982152 -119.633048 64 35303ft 611kts
24-Mar-20 11:50 37.047411 -119.437324 67 36736ft 607kts
24-Mar-20 11:51 37.110742 -119.241643 67 37225ft 604kts
24-Mar-20 11:52 37.173272 -119.046804 68 37121ft 601kts
24-Mar-20 11:53 37.235048 -118.853009 67 37106ft 597kts
24-Mar-20 11:54 37.282399 -118.654660 84 37109ft 594kts
24-Mar-20 11:55 37.301688 -118.448659 86 37102ft 594kts
24-Mar-20 11:56 37.320117 -118.245940 86 37083ft 593kts
24-Mar-20 11:57 37.338323 -118.040499 86 37088ft 593kts
24-Mar-20 11:58 37.345761 -117.835025 101 37096ft 583kts
24-Mar-20 11:58 37.330702 -117.666566 102 37097ft 583kts
24-Mar-20 12:00 37.309341 -117.430295 104 37114ft 581kts
24-Mar-20 12:01 37.256080 -117.246517 133 37104ft 541kts
24-Mar-20 12:02 37.168958 -117.097698 140 37103ft 528kts
24-Mar-20 12:02 37.093660 -116.976227 145 37107ft 523kts
24-Mar-20 12:04 36.966910 -116.862043 168 37106ft 445kts
24-Mar-20 12:05 36.857974 -116.787299 167 37119ft 454kts
24-Mar-20 12:05 36.770634 -116.705583 146 35890ft 505kts
24-Mar-20 12:06 36.677057 -116.571192 144 32639ft 514kts
24-Mar-20 12:08 36.570734 -116.419980 143 28760ft 478kts
24-Mar-20 12:08 36.498155 -116.317402 143 26353ft 465kts
24-Mar-20 12:09 36.414594 -116.199841 142 23548ft 445kts
24-Mar-20 12:10 36.334876 -116.087842 140 20821ft 424kts
24-Mar-20 12:11 36.258931 -115.981458 139 18171ft 403kts
24-Mar-20 12:12 36.192561 -115.873141 119 16015ft 385kts
24-Mar-20 12:13 36.155720 -115.760166 118 15991ft 335kts
24-Mar-20 12:14 36.120864 -115.651979 118 15564ft 334kts
24-Mar-20 12:15 36.086155 -115.544867 117 13796ft 334kts
24-Mar-20 12:16 36.051943 -115.439290 115 12061ft 329kts
24-Mar-20 12:17 36.027901 -115.332419 99 10777ft 314kts
24-Mar-20 12:18 36.020320 -115.225998 99 9341ft 306kts
24-Mar-20 12:19 36.013712 -115.126118 98 8476ft 283kts
24-Mar-20 12:20 36.007356 -115.030447 98 7318ft 274kts
24-Mar-20 12:21 36.000190 -114.937868 98 6163ft 267kts
24-Mar-20 12:22 35.992767 -114.847658 91 5518ft 265kts
24-Mar-20 12:23 36.045357 -114.801821 337 5531ft 270kts
24-Mar-20 12:24 36.068853 -114.877518 255 5510ft 253kts
24-Mar-20 12:25 36.074299 -114.961444 266 4700ft 240kts
24-Mar-20 12:26 36.074008 -115.036514 263 3431ft 175kts
24-Mar-20 12:27 36.073653 -115.090956 264 2651ft 155kts
24-Mar-20 12:28 36.073648 -115.141671 268 2097ft 97kts
24-Mar-20 12:29 36.076772 -115.152220 335 2128ft 22kts
24-Mar-20 12:30 36.081619 -115.153641 79 2123ft 13kts
24-Mar-20 12:31 36.082286 -115.153084 23 2119ft 0kts

Navigation Log

Ident Type
Flight plan parsing failed, navigation log unavailable